Decoded Metar for KLFT (LAFAYETTE in LA, USA) (IATA:LFT) | Meteo·Mobile Aviation Weather
aviador You're here:

KLFT Decoded Metar

LAFAYETTE in LA, USA
Report Time2019-01-18 12:53:00
UTC Time2019-01-18 13:23:28
Flight Rules lifr LIFR
Wind220° at 03 kt
W.Decomp.*RWY 22: 3.0 kt HW 0.2 kt LCW
RWY 29: 0.9 kt HW 2.9 kt LCW
W.Rank220° ranks 13
Current wind is below 220° avg. (7.4)
Visibility1207 m
Phenomena:Mist
Clouds:N/A
Ceiling200 ft
Temp15°C (ISA 0)
Dew Point15°C (100% RH)
QNH1020 hPa
Density Alt33 ft
Elevation36 ft
Report Wrong Elevation
Raw Report
KLFT 181253Z 22003KT 3/4SM BR VV002 15/15 A3011 RMK AO2 SLP195
T01500150=

Extra information for KLFT:More info

Metar Taf Metar & Taf Last 4 Metars F.Rules Stats Wind Profile Meteogram Temp Stats Airport Information Weather charts Add Link Nearby VenuesMetar ALERT Operation Metar Decoded Social comments

AIRNAV info for KLFT